Time;durP1;ratioP1;P1;durP2;ratioP2;P2;SDS_P1;SDS_P2;PMS_P1;PMS_P2;Temp;Humidity;BMP_temperature;BMP_pressure;BME280_temperature;BME280_humidity;BME280_pressure;Samples;Min_cycle;Max_cycle;Signal;HPM_P1;HPM_P2
2024/01/25 00:01:26;;;;;;;27.05;9.73;;;;;;;29.10;67.15;101452.81;5044669;28;66373;-39
2024/01/25 00:03:57;;;;;;;19.67;10.43;;;;;;;29.13;67.73;101466.75;5047844;28;70161;-37
2024/01/25 00:06:28;;;;;;;24.55;10.70;;;;;;;29.25;67.77;101472.47;5042370;28;67496;-37
2024/01/25 00:09:00;;;;;;;22.90;11.65;;;;;;;29.30;67.59;101478.13;5036608;28;69893;-38
2024/01/25 00:11:31;;;;;;;;;;;;;;;29.24;68.67;101478.09;5054348;28;66077;-37
2024/01/25 00:14:04;;;;;;;29.40;13.20;;;;;;;29.28;67.63;101474.81;5061372;28;69893;-38
2024/01/25 00:16:35;;;;;;;34.45;14.77;;;;;;;29.40;68.66;101486.75;5046116;28;66309;-38
2024/01/25 00:19:06;;;;;;;38.83;19.05;;;;;;;29.47;67.86;101491.34;5024076;28;70084;-36
2024/01/25 00:21:43;;;;;;;46.03;22.52;;;;;;;29.11;67.20;101438.28;5043999;28;65977;-38
2024/01/25 00:24:15;;;;;;;50.97;24.42;;;;;;;29.47;67.96;101496.75;5059103;28;70051;-37
2024/01/25 00:26:46;;;;;;;63.47;27.23;;;;;;;29.46;67.93;101503.22;5043206;28;65496;-39
2024/01/25 00:29:16;;;;;;;69.80;28.55;;;;;;;29.12;67.48;101426.47;5044612;28;68936;-38
2024/01/25 00:31:47;;;;;;;62.95;29.38;;;;;;;29.60;68.84;101503.09;5047945;28;66016;-38
2024/01/25 00:34:17;;;;;;;60.20;26.35;;;;;;;29.61;69.19;101509.34;5058629;28;70482;-38
2024/01/25 00:36:49;;;;;;;59.07;26.87;;;;;;;29.60;67.58;101511.22;5044409;28;65820;-38
2024/01/25 00:39:20;;;;;;;58.13;26.60;;;;;;;29.60;68.42;101513.09;5043299;28;70569;-38
2024/01/25 00:41:52;;;;;;;52.70;25.17;;;;;;;29.64;68.71;101530.59;5049645;28;66444;-38
2024/01/25 00:44:23;;;;;;;45.65;23.15;;;;;;;29.55;67.94;101515.53;5050810;28;69965;-39
2024/01/25 00:46:54;;;;;;;56.08;24.40;;;;;;;29.56;68.20;101509.09;5045607;28;65463;-38
2024/01/25 00:49:25;;;;;;;44.67;22.38;;;;;;;29.63;67.88;101520.84;5037420;28;70214;-39
2024/01/25 00:52:00;;;;;;;57.03;22.95;;;;;;;29.71;68.00;101536.91;5031351;28;65647;-40
2024/01/25 00:54:32;;;;;;;60.03;21.48;;;;;;;29.69;67.21;101538.97;5056361;28;70445;-38
2024/01/25 00:57:03;;;;;;;45.55;21.13;;;;;;;29.71;66.86;101550.44;5048092;28;65111;-38
2024/01/25 00:59:34;;;;;;;46.05;20.33;;;;;;;29.72;67.10;101543.97;5046295;28;70306;-39
2024/01/25 01:02:10;;;;;;;41.20;19.98;;;;;;;29.73;67.39;101556.50;5044701;28;66540;-39
2024/01/25 01:04:42;;;;;;;27.55;17.08;;;;;;;29.76;65.38;101556.09;5026250;28;70649;-38
2024/01/25 01:07:17;;;;;;;29.27;16.65;;;;;;;29.73;65.33;101555.66;5039996;28;66249;-38
2024/01/25 01:09:47;;;;;;;23.88;15.88;;;;;;;29.75;64.83;101558.97;5041090;28;70059;-38
2024/01/25 01:12:19;;;;;;;20.13;14.60;;;;;;;29.75;65.33;101559.81;5041378;28;66139;-38
2024/01/25 01:14:49;;;;;;;24.00;14.93;;;;;;;29.75;65.03;101559.81;5038782;28;70613;-38
2024/01/25 01:17:21;;;;;;;27.52;14.60;;;;;;;29.79;64.93;101569.22;5034158;28;66824;-42
2024/01/25 01:19:52;;;;;;;21.50;14.47;;;;;;;29.71;64.75;101557.72;5038919;28;69853;-38
2024/01/25 01:22:23;;;;;;;23.75;14.38;;;;;;;29.75;64.65;101559.81;5034577;28;66942;-38
2024/01/25 01:24:54;;;;;;;23.52;15.13;;;;;;;29.87;64.67;101573.66;5041873;28;70024;-38
2024/01/25 01:27:25;;;;;;;19.73;14.27;;;;;;;29.89;64.47;101581.56;5041371;28;66116;-38
2024/01/25 01:29:55;;;;;;;28.45;14.77;;;;;;;29.86;64.96;101571.13;5050013;28;70499;-38
2024/01/25 01:32:26;;;;;;;20.65;13.60;;;;;;;29.92;64.63;101581.16;5040213;28;66332;-38
2024/01/25 01:34:57;;;;;;;21.95;14.98;;;;;;;29.94;65.00;101579.09;5038051;28;70215;-38
2024/01/25 01:37:28;;;;;;;17.85;14.38;;;;;;;29.93;64.60;101577.44;5041011;28;66947;-38
2024/01/25 01:40:00;;;;;;;18.27;13.15;;;;;;;29.91;64.74;101576.78;5037321;28;70974;-38
2024/01/25 01:42:32;;;;;;;18.50;14.25;;;;;;;29.93;64.40;101572.84;5050131;28;65530;-38
2024/01/25 01:45:04;;;;;;;19.45;14.55;;;;;;;29.97;64.80;101578.69;5038722;28;70232;-38
2024/01/25 01:47:35;;;;;;;22.20;13.65;;;;;;;29.98;64.71;101585.81;5051760;28;66691;-38
2024/01/25 01:50:07;;;;;;;22.85;12.98;;;;;;;29.97;64.61;101576.00;5042994;28;70216;-38
2024/01/25 01:52:38;;;;;;;19.95;14.15;;;;;;;30.00;64.70;101571.00;5044166;28;66439;-38
2024/01/25 01:55:10;;;;;;;15.35;13.45;;;;;;;29.98;64.85;101574.97;5058668;28;69706;-38
2024/01/25 01:57:41;;;;;;;20.53;13.27;;;;;;;30.00;64.95;101578.31;5057320;28;66548;-37
2024/01/25 02:00:16;;;;;;;19.60;13.45;;;;;;;30.01;64.63;101580.81;5059122;28;69746;-38
2024/01/25 02:02:47;;;;;;;16.50;13.20;;;;;;;30.06;64.65;101588.31;5036071;28;65922;-37
2024/01/25 02:05:18;;;;;;;15.40;12.23;;;;;;;30.05;64.80;101587.50;5043211;28;70880;-37
2024/01/25 02:07:51;;;;;;;17.33;12.80;;;;;;;30.08;64.48;101580.03;5055008;28;66418;-38
2024/01/25 02:10:22;;;;;;;14.45;12.73;;;;;;;30.09;64.66;101587.97;5036938;28;70056;-39
2024/01/25 02:12:53;;;;;;;19.02;13.18;;;;;;;30.09;64.54;101571.72;5039252;28;66291;-38
2024/01/25 02:15:24;;;;;;;16.33;12.52;;;;;;;30.08;64.38;101564.63;5051406;28;70576;-38
2024/01/25 02:17:55;;;;;;;23.05;12.57;;;;;;;30.12;64.56;101571.31;5049982;28;66242;-38
2024/01/25 02:20:26;;;;;;;14.30;12.88;;;;;;;30.15;64.72;101570.94;5045906;28;70139;-38
2024/01/25 02:22:57;;;;;;;15.88;11.80;;;;;;;30.15;64.48;101570.94;5059180;28;66180;-37
2024/01/25 02:25:31;;;;;;;15.38;12.10;;;;;;;30.16;64.36;101569.88;5029570;28;69366;-38
2024/01/25 02:28:02;;;;;;;14.38;11.95;;;;;;;30.18;64.64;101578.63;5053478;28;65987;-38
2024/01/25 02:30:33;;;;;;;17.05;11.63;;;;;;;30.19;64.77;101574.06;5059115;28;69928;-38
2024/01/25 02:33:04;;;;;;;16.08;12.82;;;;;;;30.04;64.69;101552.53;5055505;28;65770;-38
2024/01/25 02:35:35;;;;;;;19.27;12.27;;;;;;;30.16;64.53;101578.00;5074702;28;69517;-38
2024/01/25 02:38:06;;;;;;;13.65;11.50;;;;;;;30.23;64.18;101576.22;5057555;28;66482;-38
2024/01/25 02:40:37;;;;;;;13.27;11.52;;;;;;;30.25;64.51;101573.28;5053408;28;70977;-37
2024/01/25 02:43:08;;;;;;;14.10;11.40;;;;;;;30.27;64.26;101566.66;5040120;28;65441;-38
2024/01/25 02:45:39;;;;;;;16.10;12.00;;;;;;;30.30;64.46;101567.28;5039792;28;69871;-37
2024/01/25 02:48:10;;;;;;;13.63;11.82;;;;;;;30.31;64.60;101574.34;5033910;28;67307;-38
2024/01/25 02:50:41;;;;;;;17.45;11.15;;;;;;;30.33;64.72;101558.75;5027345;28;70164;-38
2024/01/25 02:53:12;;;;;;;14.20;11.35;;;;;;;30.35;64.51;101570.22;5036736;28;65255;-38
2024/01/25 02:55:43;;;;;;;14.68;11.70;;;;;;;30.36;64.57;101555.66;5040061;28;70391;-38
2024/01/25 02:58:13;;;;;;;13.80;10.88;;;;;;;30.36;64.51;101561.06;5066370;28;66052;-38
2024/01/25 03:00:44;;;;;;;16.73;12.30;;;;;;;30.41;64.16;101561.31;5039582;28;70092;-38
2024/01/25 03:03:16;;;;;;;13.57;11.32;;;;;;;30.36;64.57;101550.25;5051076;28;67370;-37
2024/01/25 03:05:47;;;;;;;12.77;10.77;;;;;;;30.36;64.33;101544.81;5059087;28;70269;-38
2024/01/25 03:08:19;;;;;;;16.33;11.63;;;;;;;30.45;64.71;101557.16;5041443;28;65300;-38
2024/01/25 03:10:50;;;;;;;14.65;11.18;;;;;;;30.21;64.04;101510.59;5032950;28;70375;-38
2024/01/25 03:13:21;;;;;;;14.73;11.20;;;;;;;30.44;64.47;101555.47;5040695;28;67659;-38
2024/01/25 03:15:52;;;;;;;13.63;11.55;;;;;;;30.48;64.48;101554.06;5049752;28;69226;-39
2024/01/25 03:18:22;;;;;;;12.45;11.30;;;;;;;30.50;64.17;101560.09;5053000;28;66177;-37
2024/01/25 03:20:54;;;;;;;19.85;11.40;;;;;;;30.52;64.42;101554.47;5070380;28;70337;-37
2024/01/25 03:23:24;;;;;;;14.07;11.07;;;;;;;30.55;64.20;101560.31;5063986;28;66191;-39
2024/01/25 03:25:55;;;;;;;12.02;9.98;;;;;;;30.54;63.94;101555.97;5048745;28;69319;-40
2024/01/25 03:28:26;;;;;;;17.88;11.30;;;;;;;30.60;64.41;101560.56;5046712;28;66504;-38
2024/01/25 03:30:57;;;;;;;19.85;11.13;;;;;;;30.53;63.78;101535.31;5068647;27;70506;-39
2024/01/25 03:33:32;;;;;;;15.13;11.35;;;;;;;30.63;64.19;101552.03;5061569;28;42916;-36
2024/01/25 03:36:04;;;;;;;15.18;11.25;;;;;;;30.64;64.37;101542.84;5056585;28;69578;-39
2024/01/25 03:38:35;;;;;;;14.85;10.73;;;;;;;30.64;64.08;101545.56;5061339;28;66077;-39
2024/01/25 03:41:06;;;;;;;13.95;11.20;;;;;;;30.66;64.29;101545.38;5043573;28;68868;-38
2024/01/25 03:43:37;;;;;;;11.85;10.63;;;;;;;30.70;63.92;101547.47;5058066;28;66084;-38
2024/01/25 03:46:13;;;;;;;13.23;10.77;;;;;;;30.71;63.59;101545.59;5063382;28;69683;-38
2024/01/25 03:48:44;;;;;;;14.23;10.52;;;;;;;30.73;63.97;101552.47;5057728;28;66576;-38
2024/01/25 03:51:15;;;;;;;12.27;10.25;;;;;;;30.72;63.82;101550.78;5051920;28;69182;-38
2024/01/25 03:53:46;;;;;;;15.85;10.68;;;;;;;30.76;63.71;101544.97;5061554;28;66294;-38
2024/01/25 03:56:17;;;;;;;12.40;11.05;;;;;;;30.80;63.51;101538.97;5061207;28;70252;-38
2024/01/25 03:58:48;;;;;;;16.00;10.60;;;;;;;30.81;64.04;101548.75;5049500;28;66834;-38
2024/01/25 04:01:19;;;;;;;11.52;10.32;;;;;;;30.82;63.76;101528.78;5060143;28;70178;-39
2024/01/25 04:03:50;;;;;;;12.85;10.95;;;;;;;30.87;63.85;101529.00;5077559;28;66186;-38
2024/01/25 04:06:21;;;;;;;;;;;;;;;30.60;63.82;101525.34;5053743;28;70115;-38
2024/01/25 04:08:53;;;;;;;11.60;10.00;;;;;;;30.87;63.89;101530.88;5042160;28;65236;-38
2024/01/25 04:11:23;;;;;;;14.60;11.25;;;;;;;30.91;63.66;101526.72;5041673;28;69959;-39
2024/01/25 04:13:58;;;;;;;12.13;10.88;;;;;;;30.89;63.58;101513.38;5037115;28;66375;-38
2024/01/25 04:16:29;;;;;;;13.23;11.43;;;;;;;30.95;63.91;101517.13;5038781;28;70299;-39
2024/01/25 04:19:00;;;;;;;11.93;10.40;;;;;;;30.98;63.45;101516.75;5027781;28;65158;-38
2024/01/25 04:21:31;;;;;;;15.25;11.13;;;;;;;30.98;63.32;101505.03;5041279;28;70555;-39
2024/01/25 04:24:02;;;;;;;13.05;10.32;;;;;;;31.01;63.54;101512.75;5055291;28;66574;-39
2024/01/25 04:26:33;;;;;;;11.20;10.10;;;;;;;31.04;63.30;101496.94;5058585;28;70429;-38
2024/01/25 04:29:03;;;;;;;11.23;10.23;;;;;;;31.06;63.60;101485.88;5060087;28;66852;-38
2024/01/25 04:31:34;;;;;;;13.85;10.50;;;;;;;31.06;63.32;101486.72;5048586;28;69624;-38
2024/01/25 04:34:05;;;;;;;12.90;11.23;;;;;;;31.08;63.15;101481.09;5059451;28;66247;-38
2024/01/25 04:36:36;;;;;;;11.52;10.38;;;;;;;31.10;63.38;101482.56;5069116;28;70823;-38
2024/01/25 04:39:07;;;;;;;14.63;10.60;;;;;;;31.12;63.35;101479.63;5056772;28;67885;-39
2024/01/25 04:41:39;;;;;;;11.90;10.70;;;;;;;31.11;63.31;101473.38;5044256;28;69917;-40
2024/01/25 04:44:10;;;;;;;11.23;10.10;;;;;;;31.14;63.56;101467.53;5028281;28;66813;-37
2024/01/25 04:46:42;;;;;;;15.73;10.85;;;;;;;31.14;63.54;101462.13;5052820;28;70580;-38
2024/01/25 04:49:12;;;;;;;;;;;;;;;30.93;63.55;101467.75;5031117;28;66592;-38
2024/01/25 04:51:43;;;;;;;11.05;10.05;;;;;;;31.19;63.43;101474.22;5041362;28;70872;-38
2024/01/25 04:54:15;;;;;;;12.00;10.57;;;;;;;31.21;63.40;101451.28;5049958;28;65886;-38
2024/01/25 04:56:46;;;;;;;12.75;10.32;;;;;;;31.23;62.96;101453.78;5051769;28;69883;-39
2024/01/25 04:59:16;;;;;;;12.05;10.68;;;;;;;31.25;63.39;101452.53;5045534;28;66020;-38
2024/01/25 05:01:47;;;;;;;11.32;10.32;;;;;;;31.26;63.48;101437.09;5048862;28;69012;-39
2024/01/25 05:04:18;;;;;;;15.47;9.83;;;;;;;31.27;62.83;101431.47;5035224;28;66066;-38
2024/01/25 05:06:49;;;;;;;11.88;10.60;;;;;;;31.29;63.23;101436.72;5041866;28;70012;-39
2024/01/25 05:09:20;;;;;;;10.68;9.77;;;;;;;31.30;63.43;101441.06;5051599;28;66225;-39
2024/01/25 05:11:50;;;;;;;12.88;10.38;;;;;;;31.33;63.09;101421.69;5041540;28;70722;-39
2024/01/25 05:14:21;;;;;;;11.43;9.50;;;;;;;31.33;63.16;101416.25;5051109;28;67610;-38
2024/01/25 05:16:52;;;;;;;10.95;9.85;;;;;;;31.36;63.25;101418.56;5068814;28;70333;-38
2024/01/25 05:19:25;;;;;;;12.40;10.03;;;;;;;31.36;62.72;101399.59;5042028;28;66353;-38
2024/01/25 05:21:56;;;;;;;11.27;9.70;;;;;;;31.35;62.71;101400.63;5042660;28;69397;-38
2024/01/25 05:24:26;;;;;;;11.02;9.93;;;;;;;31.27;62.84;101379.97;5053567;28;65039;-38
2024/01/25 05:26:57;;;;;;;11.18;10.07;;;;;;;31.39;63.25;101385.63;5054754;28;69085;-39
2024/01/25 05:29:28;;;;;;;10.50;9.70;;;;;;;31.42;63.00;101382.47;5054947;28;67588;-39
2024/01/25 05:31:59;;;;;;;9.40;8.60;;;;;;;31.44;62.95;101379.56;5054179;28;69813;-38
2024/01/25 05:34:30;;;;;;;10.63;9.02;;;;;;;31.43;62.87;101370.59;5054676;28;66384;-39
2024/01/25 05:37:01;;;;;;;11.07;9.40;;;;;;;31.45;63.05;101363.06;5061343;28;70006;-40
2024/01/25 05:39:33;;;;;;;12.10;10.03;;;;;;;31.21;62.96;101315.78;5060385;28;65993;-38
2024/01/25 05:42:04;;;;;;;9.90;9.10;;;;;;;31.51;62.59;101364.94;5067286;28;70208;-38
2024/01/25 05:44:35;;;;;;;10.27;9.37;;;;;;;31.52;62.79;101363.06;5040896;28;66910;-38
2024/01/25 05:47:06;;;;;;;9.85;8.77;;;;;;;31.55;62.76;101354.50;5042039;28;70087;-38
2024/01/25 05:49:37;;;;;;;10.48;9.50;;;;;;;31.56;62.75;101339.88;5056616;28;67082;-38
2024/01/25 05:52:07;;;;;;;10.57;9.32;;;;;;;31.59;62.60;101329.47;5040347;28;69921;-38
2024/01/25 05:54:38;;;;;;;11.60;9.82;;;;;;;31.59;62.88;101318.63;5039652;28;66491;-38
2024/01/25 05:57:10;;;;;;;10.82;9.35;;;;;;;31.64;62.44;101319.84;5023969;28;70010;-38
2024/01/25 05:59:41;;;;;;;10.98;9.05;;;;;;;31.66;62.55;101309.63;5036220;28;66465;-39
2024/01/25 06:02:11;;;;;;;10.48;9.40;;;;;;;31.67;62.50;101313.97;5039971;28;69088;-39
2024/01/25 06:04:42;;;;;;;10.47;9.57;;;;;;;31.69;62.34;101312.72;5041056;28;66645;-38
2024/01/25 06:07:13;;;;;;;10.20;9.35;;;;;;;31.70;62.33;101302.69;5039688;28;69980;-39
2024/01/25 06:09:44;;;;;;;10.75;9.75;;;;;;;31.69;62.07;101292.91;5042373;28;67341;-39
2024/01/25 06:12:15;;;;;;;9.85;8.98;;;;;;;31.75;62.68;101292.03;5042176;28;70364;-38
2024/01/25 06:14:46;;;;;;;9.43;8.70;;;;;;;31.73;62.22;101280.56;5038758;28;66069;-37
2024/01/25 06:17:16;;;;;;;9.68;8.98;;;;;;;31.77;62.23;101276.38;5042309;28;70394;-38
2024/01/25 06:19:48;;;;;;;10.40;9.35;;;;;;;31.81;62.30;101277.59;5057124;28;67211;-39
2024/01/25 06:22:20;;;;;;;9.30;8.60;;;;;;;31.83;62.49;101270.09;5058106;28;71072;-39
2024/01/25 06:24:52;;;;;;;10.35;9.45;;;;;;;31.82;62.12;101261.13;5058820;28;66764;-38
2024/01/25 06:27:23;;;;;;;9.85;8.32;;;;;;;31.82;62.04;101258.41;5048986;28;69092;-40
2024/01/25 06:29:53;;;;;;;10.80;9.43;;;;;;;31.82;62.26;101246.75;5045943;28;66746;-39
2024/01/25 06:32:24;;;;;;;9.75;8.98;;;;;;;31.69;62.11;101214.25;5043118;28;68921;-38
2024/01/25 06:34:55;;;;;;;9.82;8.88;;;;;;;31.92;62.21;101246.28;5057497;28;65465;-39
2024/01/25 06:37:26;;;;;;;9.63;8.73;;;;;;;31.93;62.01;101224.38;5060405;28;69866;-38
2024/01/25 06:39:58;;;;;;;9.20;8.47;;;;;;;31.95;62.11;101224.94;5047587;28;67205;-38
2024/01/25 06:42:29;;;;;;;9.32;8.52;;;;;;;31.92;62.31;101211.00;5048915;28;70443;-39
2024/01/25 06:45:00;;;;;;;9.33;8.50;;;;;;;31.89;61.98;101198.69;5041862;28;66147;-38
2024/01/25 06:47:32;;;;;;;9.90;9.07;;;;;;;31.96;61.81;101199.50;5048503;28;69598;-39
2024/01/25 06:50:02;;;;;;;8.85;8.25;;;;;;;31.95;61.43;101183.44;5053992;28;66522;-38
2024/01/25 06:52:34;;;;;;;8.80;8.03;;;;;;;31.97;61.92;101182.16;5073155;28;70065;-38
2024/01/25 06:55:06;;;;;;;9.15;8.23;;;;;;;32.00;61.92;101175.47;5051010;28;65500;-38
2024/01/25 06:57:37;;;;;;;9.27;8.57;;;;;;;32.11;61.83;101190.19;5054055;28;69214;-37
2024/01/25 07:00:11;;;;;;;9.35;8.50;;;;;;;32.13;61.88;101177.25;5056827;28;66430;-40
2024/01/25 07:02:42;;;;;;;10.35;8.07;;;;;;;32.14;61.78;101159.91;5052483;28;70339;-39
2024/01/25 07:05:14;;;;;;;9.25;8.35;;;;;;;32.19;61.46;101162.78;5020975;28;65892;-38
2024/01/25 07:07:45;;;;;;;11.37;8.37;;;;;;;32.19;61.68;101154.66;5054157;28;70088;-38
2024/01/25 07:10:16;;;;;;;10.27;9.33;;;;;;;32.23;61.60;101158.56;5060170;28;67699;-38
2024/01/25 07:12:47;;;;;;;9.50;8.90;;;;;;;32.24;61.33;101157.53;5057482;28;70298;-38
2024/01/25 07:15:18;;;;;;;10.18;9.30;;;;;;;32.25;61.08;101143.72;5063243;28;66254;-39
2024/01/25 07:17:49;;;;;;;8.75;8.15;;;;;;;32.31;61.38;101141.97;5052010;28;70927;-39
2024/01/25 07:20:20;;;;;;;9.90;9.20;;;;;;;32.26;61.23;101130.97;5059226;28;66159;-38
2024/01/25 07:22:53;;;;;;;12.60;10.02;;;;;;;32.30;61.41;101129.47;5064579;28;70340;-39
2024/01/25 07:25:24;;;;;;;11.20;10.40;;;;;;;32.39;61.22;101128.13;5063594;28;66011;-38
2024/01/25 07:27:55;;;;;;;12.33;11.43;;;;;;;32.40;61.28;101126.22;5061889;28;69886;-38
2024/01/25 07:30:25;;;;;;;14.95;13.55;;;;;;;32.44;61.11;101135.59;5078897;28;66319;-40
2024/01/25 07:32:57;;;;;;;14.65;12.93;;;;;;;32.45;61.35;101131.81;5060248;28;70104;-37
2024/01/25 07:35:28;;;;;;;18.73;16.73;;;;;;;32.47;61.10;101135.19;5061278;28;65278;-38
2024/01/25 07:37:59;;;;;;;13.83;12.67;;;;;;;32.52;60.93;101134.53;5042547;28;70629;-39
2024/01/25 07:40:29;;;;;;;16.45;14.75;;;;;;;32.54;60.93;101130.53;5031071;28;66635;-39
2024/01/25 07:43:02;;;;;;;16.00;14.40;;;;;;;32.58;60.88;101125.47;5037445;28;69843;-39
2024/01/25 07:45:33;;;;;;;14.98;13.50;;;;;;;32.58;60.53;101114.59;5041144;28;67074;-38
2024/01/25 07:48:04;;;;;;;13.87;12.70;;;;;;;32.60;60.70;101109.78;5046261;28;70806;-38
2024/01/25 07:50:44;;;;;;;14.18;13.18;;;;;;;32.58;60.81;101101.03;5025028;28;66148;-38
2024/01/25 07:53:16;;;;;;;13.13;12.13;;;;;;;32.65;60.67;101113.47;5040628;28;70236;-38
2024/01/25 07:55:47;;;;;;;16.65;13.52;;;;;;;32.59;60.84;101100.78;5039642;28;66403;-39
2024/01/25 07:58:17;;;;;;;16.75;15.25;;;;;;;32.71;60.75;101114.44;5039463;28;70269;-38
2024/01/25 08:00:49;;;;;;;17.00;14.60;;;;;;;32.74;60.66;101118.59;5035456;28;67424;-38
2024/01/25 08:03:20;;;;;;;18.88;15.90;;;;;;;32.76;60.54;101114.56;5027301;28;70397;-39
2024/01/25 08:05:51;;;;;;;15.35;13.90;;;;;;;32.80;60.51;101118.50;5041235;28;65947;-38
2024/01/25 08:08:22;;;;;;;14.20;13.03;;;;;;;32.81;60.48;101114.72;5043228;28;70835;-38
2024/01/25 08:10:53;;;;;;;14.43;12.73;;;;;;;32.81;60.02;101109.28;5042022;28;66615;-39
2024/01/25 08:13:24;;;;;;;15.15;13.68;;;;;;;32.85;60.19;101115.94;5032009;28;69638;-38
2024/01/25 08:15:56;;;;;;;14.88;13.85;;;;;;;32.60;60.46;101066.31;5041897;28;65910;-38
2024/01/25 08:18:29;;;;;;;;;;;;;;;32.72;60.04;101110.66;5037264;28;70885;-38
2024/01/25 08:21:01;;;;;;;14.40;13.32;;;;;;;32.92;60.50;101099.53;5048211;28;67043;-38
2024/01/25 08:23:32;;;;;;;13.85;12.65;;;;;;;32.96;60.22;101099.91;5042638;28;70249;-39
2024/01/25 08:26:04;;;;;;;14.37;13.23;;;;;;;32.97;60.28;101096.16;5034518;28;67403;-38
2024/01/25 08:28:36;;;;;;;13.73;12.53;;;;;;;33.03;60.13;101093.34;5037844;28;69065;-37
2024/01/25 08:31:07;;;;;;;13.50;12.43;;;;;;;33.08;60.27;101092.69;5065094;28;66028;-38
2024/01/25 08:33:45;;;;;;;13.88;12.52;;;;;;;33.00;59.90;101073.97;5039901;28;69810;-38
2024/01/25 08:36:20;;;;;;;14.48;13.27;;;;;;;33.13;59.30;101100.97;5042291;28;65341;-38
2024/01/25 08:38:51;;;;;;;17.15;15.55;;;;;;;32.85;59.91;101050.72;5045935;28;70045;-38
2024/01/25 08:41:22;;;;;;;18.02;16.55;;;;;;;33.18;59.90;101094.81;5056509;28;66066;-38
2024/01/25 08:43:53;;;;;;;18.08;16.35;;;;;;;33.19;59.84;101101.94;5053391;28;70515;-38
2024/01/25 08:46:24;;;;;;;16.53;15.13;;;;;;;33.22;59.83;101101.47;5033643;28;67171;-38
2024/01/25 08:48:55;;;;;;;15.75;14.38;;;;;;;33.26;59.78;101103.47;5045097;28;68990;-38
2024/01/25 08:51:26;;;;;;;14.98;13.85;;;;;;;33.28;59.99;101104.09;5048176;28;65725;-38
2024/01/25 08:53:57;;;;;;;14.90;13.65;;;;;;;33.32;59.41;101109.88;5047749;28;69794;-38
2024/01/25 08:56:31;;;;;;;15.20;13.88;;;;;;;33.33;59.84;101109.66;5068607;28;66352;-38
2024/01/25 08:59:02;;;;;;;15.60;13.85;;;;;;;33.35;59.57;101110.28;5039323;28;70254;-38
2024/01/25 09:01:32;;;;;;;15.10;13.77;;;;;;;33.37;59.45;101112.75;5039868;28;66280;-38
2024/01/25 09:04:04;;;;;;;14.60;13.30;;;;;;;33.32;59.66;101099.84;5049011;28;70749;-39
2024/01/25 09:06:35;;;;;;;14.48;13.18;;;;;;;33.43;59.42;101116.41;5047350;28;66304;-38
2024/01/25 09:09:05;;;;;;;14.30;12.50;;;;;;;33.48;59.53;101130.16;5027528;28;70150;-41
2024/01/25 09:11:36;;;;;;;15.55;12.80;;;;;;;33.50;59.57;101133.47;5036746;28;68131;-39
2024/01/25 09:14:07;;;;;;;13.35;12.05;;;;;;;33.42;59.51;101114.78;5050569;28;70128;-39
2024/01/25 09:16:38;;;;;;;14.13;12.83;;;;;;;33.35;58.64;101126.59;5046939;28;67772;-39
2024/01/25 09:19:09;;;;;;;45.42;36.75;;;;;;;33.31;59.44;101125.38;5047916;28;70201;-38
2024/01/25 09:21:43;;;;;;;52.85;44.63;;;;;;;33.19;60.22;101124.50;5035758;28;65426;-38
2024/01/25 09:24:14;;;;;;;62.33;48.67;;;;;;;33.12;60.33;101126.47;5058749;28;71471;-37
2024/01/25 09:26:44;;;;;;;64.28;50.85;;;;;;;33.08;60.82;101125.28;5041922;28;65713;-37
2024/01/25 09:29:15;;;;;;;65.22;52.40;;;;;;;32.97;61.28;101124.16;5041483;28;70231;-40
2024/01/25 09:31:46;;;;;;;62.07;50.03;;;;;;;32.98;61.71;101130.41;5059429;28;66674;-38
2024/01/25 09:34:17;;;;;;;60.57;48.90;;;;;;;32.74;62.13;101103.13;5054887;28;69981;-39
2024/01/25 09:36:48;;;;;;;59.90;46.85;;;;;;;32.92;62.54;101138.41;5039942;28;66010;-38
2024/01/25 09:39:20;;;;;;;52.93;44.07;;;;;;;32.89;62.80;101133.44;5046257;28;70970;-37
2024/01/25 09:41:51;;;;;;;49.17;41.03;;;;;;;32.86;62.92;101128.44;5029736;28;66148;-36
2024/01/25 09:44:22;;;;;;;52.42;37.97;;;;;;;32.86;62.91;101123.03;5028900;28;69587;-38
2024/01/25 09:46:54;;;;;;;49.92;37.35;;;;;;;32.83;63.27;101119.94;5034166;28;66136;-40
2024/01/25 09:49:25;;;;;;;47.03;36.27;;;;;;;32.85;63.17;101128.69;5033281;28;70036;-40
2024/01/25 09:51:57;;;;;;;42.67;32.88;;;;;;;32.83;63.70;101134.34;5032208;28;66052;-38
2024/01/25 09:54:28;;;;;;;;;;;;;;;32.68;64.44;101131.16;5037213;28;70720;-39
2024/01/25 09:57:14;;;;;;;40.45;30.45;;;;;;;32.84;64.15;101136.00;5034356;28;66366;-37
2024/01/25 09:59:45;;;;;;;40.40;31.48;;;;;;;32.78;64.37;101128.75;5041110;28;70856;-38
2024/01/25 10:02:16;;;;;;;38.72;28.92;;;;;;;32.84;64.37;101136.00;5040567;28;66718;-37
2024/01/25 10:04:54;;;;;;;35.80;27.05;;;;;;;32.83;64.12;101138.97;5055877;28;69957;-37
2024/01/25 10:07:41;;;;;;;39.30;26.23;;;;;;;32.78;64.18;101139.63;5040683;28;65916;-39
2024/01/25 10:10:13;;;;;;;32.28;24.63;;;;;;;32.78;64.44;101141.53;5040840;28;70195;-37
2024/01/25 10:12:45;;;;;;;34.35;23.40;;;;;;;32.81;64.45;101147.31;5044160;28;66246;-37
2024/01/25 10:15:15;;;;;;;31.45;21.45;;;;;;;32.80;64.39;101148.38;5032018;28;70050;-38
2024/01/25 10:17:50;;;;;;;31.13;19.63;;;;;;;32.80;64.48;101159.25;5055383;28;66266;-37
2024/01/25 10:20:43;;;;;;;31.67;18.65;;;;;;;32.64;64.51;101140.84;5037844;28;69506;-38
2024/01/25 10:23:14;;;;;;;28.83;18.88;;;;;;;32.76;64.62;101168.91;5046421;28;66542;-38
2024/01/25 10:25:46;;;;;;;27.37;17.80;;;;;;;32.77;64.64;101172.47;5057161;28;71412;-37
2024/01/25 10:28:17;;;;;;;34.30;16.33;;;;;;;32.78;64.54;101169.50;5048931;28;66583;-37
2024/01/25 10:30:48;;;;;;;24.63;15.70;;;;;;;32.79;64.34;101181.19;5058632;28;70347;-37
2024/01/25 10:33:19;;;;;;;17.73;14.13;;;;;;;32.70;64.53;101167.09;5041919;28;67400;-38
2024/01/25 10:35:55;;;;;;;19.77;13.88;;;;;;;32.34;64.92;101108.13;5042033;28;69669;-37
2024/01/25 10:38:26;;;;;;;30.05;13.45;;;;;;;32.77;65.81;101180.63;5054681;28;65677;-38
2024/01/25 10:41:02;;;;;;;22.83;14.13;;;;;;;32.79;65.50;101190.22;5039453;28;70254;-38
2024/01/25 10:43:35;;;;;;;19.13;12.50;;;;;;;32.78;65.38;101190.41;5036543;28;65454;-38
2024/01/25 10:46:07;;;;;;;24.98;12.13;;;;;;;32.80;65.44;101197.28;5040781;28;70722;-38
2024/01/25 10:48:39;;;;;;;24.77;12.90;;;;;;;32.82;65.31;101203.34;5050154;28;66973;-39
2024/01/25 10:51:13;;;;;;;20.65;11.57;;;;;;;32.83;65.10;101204.16;5054603;28;69618;-38
2024/01/25 10:53:46;;;;;;;19.55;11.75;;;;;;;32.82;65.11;101197.91;5072411;28;65656;-37
2024/01/25 10:56:17;;;;;;;22.20;11.43;;;;;;;32.85;65.32;101211.03;5027525;28;70714;-39
2024/01/25 10:58:48;;;;;;;16.27;10.73;;;;;;;32.61;65.36;101169.28;5043451;28;66259;-39
2024/01/25 11:01:20;;;;;;;19.70;10.70;;;;;;;32.83;65.25;101213.13;5041211;28;69902;-38
2024/01/25 11:03:51;;;;;;;30.67;10.48;;;;;;;32.81;65.20;101201.66;5057495;28;66175;-39
2024/01/25 11:06:23;;;;;;;20.85;11.32;;;;;;;32.91;64.94;101218.28;5036970;28;69296;-38
2024/01/25 11:09:07;;;;;;;13.68;10.45;;;;;;;32.79;64.95;101203.78;5049599;28;66188;-37
2024/01/25 11:11:37;;;;;;;17.10;9.73;;;;;;;32.80;65.00;101205.44;5047447;28;69991;-39
2024/01/25 11:14:14;;;;;;;18.27;9.87;;;;;;;32.81;64.93;101217.97;5049588;28;67291;-39
2024/01/25 11:16:44;;;;;;;16.63;9.38;;;;;;;32.80;66.02;101227.19;5040098;28;70176;-38
2024/01/25 11:19:22;;;;;;;20.73;9.57;;;;;;;32.85;65.85;101235.50;5057222;28;66048;-38
2024/01/25 11:21:53;;;;;;;18.27;9.32;;;;;;;32.60;65.76;101196.69;5046545;28;70294;-38
2024/01/25 11:24:29;;;;;;;19.73;10.80;;;;;;;32.83;66.02;101251.19;5041140;28;65842;-40
2024/01/25 11:27:01;;;;;;;21.77;9.45;;;;;;;32.61;65.83;101217.34;5055548;28;69714;-38
2024/01/25 11:29:33;;;;;;;14.95;9.30;;;;;;;32.81;66.21;101261.44;5042182;28;65790;-38
2024/01/25 11:32:05;;;;;;;20.20;9.95;;;;;;;32.79;66.47;101268.13;5039201;28;70076;-40
2024/01/25 11:34:36;;;;;;;21.05;9.63;;;;;;;32.78;66.34;101266.50;5031240;28;65313;-41